Time;durP1;ratioP1;P1;durP2;ratioP2;P2;SDS_P1;SDS_P2;PMS_P1;PMS_P2;Temp;Humidity;BMP_temperature;BMP_pressure;BME280_temperature;BME280_humidity;BME280_pressure;Samples;Min_cycle;Max_cycle;Signal;HPM_P1;HPM_P2
2023/08/22 00:03:27;;;;;;;11.93;5.00;;;20.00;99.90;;;;;;4822364;29;20198;-83
2023/08/22 00:07:16;;;;;;;10.20;5.63;;;20.10;99.90;;;;;;4742018;30;20261;-85
2023/08/22 00:15:12;;;;;;;11.30;5.20;;;20.00;99.90;;;;;;4761053;30;20209;-84
2023/08/22 00:18:29;;;;;;;7.77;5.10;;;20.00;99.90;;;;;;4704633;30;20361;-85
2023/08/22 00:21:51;;;;;;;10.10;5.30;;;20.10;99.90;;;;;;4713560;30;20207;-85
2023/08/22 00:25:20;;;;;;;9.13;5.20;;;20.10;99.90;;;;;;4700152;30;20206;-85
2023/08/22 00:28:54;;;;;;;8.17;5.00;;;20.20;99.90;;;;;;4663786;30;20225;-85
2023/08/22 00:32:01;;;;;;;8.33;4.80;;;20.20;99.90;;;;;;4662840;30;20192;-86
2023/08/22 00:35:14;;;;;;;7.27;4.33;;;20.20;99.90;;;;;;4661588;30;20205;-85
2023/08/22 00:38:18;;;;;;;9.00;4.93;;;20.10;99.90;;;;;;4648597;30;20752;-85
2023/08/22 00:41:43;;;;;;;;;;;;;;;;;;;;;
2023/08/22 00:44:47;;;;;;;;;;;;;;;;;;;;;
2023/08/22 00:48:22;;;;;;;8.97;4.27;;;20.00;99.90;;;;;;4678821;30;20625;-81
2023/08/22 00:52:15;;;;;;;;;;;;;;;;;;;;;
2023/08/22 00:55:54;;;;;;;5.97;4.60;;;20.10;99.90;;;;;;4789039;29;20731;-81
2023/08/22 00:59:54;;;;;;;7.23;4.13;;;20.00;99.90;;;;;;4747848;30;20245;-81
2023/08/22 01:03:45;;;;;;;5.93;3.90;;;19.90;99.90;;;;;;4661074;30;20221;-86
2023/08/22 01:07:26;;;;;;;7.67;3.80;;;20.00;99.90;;;;;;4665364;30;20224;-86
2023/08/22 01:10:22;;;;;;;8.07;3.73;;;20.00;99.90;;;;;;4664017;30;20697;-83
2023/08/22 01:13:57;;;;;;;5.80;3.33;;;20.00;99.90;;;;;;4662912;30;20761;-80
2023/08/22 01:16:39;;;;;;;5.77;3.87;;;19.90;99.90;;;;;;4634647;30;20720;-78
2023/08/22 01:19:23;;;;;;;6.20;3.77;;;19.90;99.90;;;;;;4630031;31;20245;-81
2023/08/22 01:22:11;;;;;;;9.20;3.53;;;19.80;99.90;;;;;;4616038;31;20214;-80
2023/08/22 01:24:49;;;;;;;6.07;3.20;;;19.80;99.90;;;;;;4601611;31;20300;-81
2023/08/22 01:27:35;;;;;;;5.53;3.03;;;19.90;99.90;;;;;;4616563;31;20698;-81
2023/08/22 01:30:16;;;;;;;6.53;3.20;;;19.80;99.90;;;;;;4629250;30;20275;-81
2023/08/22 01:32:49;;;;;;;6.27;3.57;;;19.80;99.90;;;;;;4601482;31;20202;-80
2023/08/22 01:35:29;;;;;;;5.67;3.17;;;19.80;99.90;;;;;;4615860;30;20386;-80
2023/08/22 01:38:02;;;;;;;5.87;3.20;;;19.80;99.90;;;;;;4618849;30;20589;-82
2023/08/22 01:40:32;;;;;;;6.60;3.33;;;19.80;99.90;;;;;;4662683;30;20710;-81
2023/08/22 01:43:04;;;;;;;6.33;3.07;;;19.80;99.90;;;;;;4697906;30;20206;-81
2023/08/22 01:45:33;;;;;;;6.70;3.00;;;19.80;99.90;;;;;;4805891;29;20221;-82
2023/08/22 01:48:00;;;;;;;6.53;2.83;;;19.80;99.90;;;;;;4858445;29;20205;-78
2023/08/22 01:50:33;;;;;;;5.07;3.20;;;19.70;99.90;;;;;;4858918;29;20261;-78
2023/08/22 01:53:03;;;;;;;5.73;3.40;;;19.70;99.90;;;;;;4858468;29;20324;-77
2023/08/22 01:55:37;;;;;;;7.63;3.40;;;19.70;99.90;;;;;;4858581;29;20297;-77
2023/08/22 01:58:10;;;;;;;7.00;3.13;;;19.70;99.90;;;;;;4858229;29;20253;-77
2023/08/22 02:00:41;;;;;;;5.53;3.30;;;19.60;99.90;;;;;;4858100;29;20273;-77
2023/08/22 02:03:08;;;;;;;4.97;2.90;;;19.60;99.90;;;;;;4857274;29;20678;-78
2023/08/22 02:05:38;;;;;;;5.20;3.10;;;19.50;99.90;;;;;;4858322;29;20296;-78
2023/08/22 02:08:10;;;;;;;7.27;3.20;;;19.50;99.90;;;;;;4858370;29;20221;-78
2023/08/22 02:10:43;;;;;;;5.70;2.80;;;19.40;99.90;;;;;;4858122;29;20209;-78
2023/08/22 02:13:13;;;;;;;5.67;3.03;;;19.40;99.90;;;;;;4858520;29;20197;-78
2023/08/22 02:15:43;;;;;;;5.67;3.00;;;19.30;99.90;;;;;;4858224;29;20262;-78
2023/08/22 02:18:19;;;;;;;7.93;3.03;;;19.30;99.90;;;;;;4858270;29;20201;-78
2023/08/22 02:20:57;;;;;;;6.83;3.20;;;19.20;99.90;;;;;;4857989;29;20236;-78
2023/08/22 02:23:26;;;;;;;5.80;3.10;;;19.30;99.90;;;;;;4857814;29;20226;-78
2023/08/22 02:25:55;;;;;;;7.90;3.00;;;19.20;99.90;;;;;;4858000;29;20210;-78
2023/08/22 02:28:22;;;;;;;4.47;2.93;;;19.30;99.90;;;;;;4857851;29;20213;-77
2023/08/22 02:30:57;;;;;;;6.00;2.83;;;19.20;99.90;;;;;;4857380;29;20254;-78
2023/08/22 02:33:32;;;;;;;4.80;2.40;;;19.20;99.90;;;;;;4856892;29;20288;-78
2023/08/22 02:36:05;;;;;;;4.10;2.50;;;19.20;99.90;;;;;;4856793;29;20719;-77
2023/08/22 02:38:32;;;;;;;4.60;2.77;;;19.10;99.90;;;;;;4856892;29;20252;-78
2023/08/22 02:41:04;;;;;;;5.23;2.80;;;19.00;99.90;;;;;;4857350;29;20351;-78
2023/08/22 02:43:31;;;;;;;6.30;2.80;;;19.00;99.90;;;;;;4857491;29;20258;-80
2023/08/22 02:45:58;;;;;;;9.23;3.00;;;18.80;99.90;;;;;;4857667;29;20221;-76
2023/08/22 02:48:26;;;;;;;3.93;2.63;;;18.80;99.90;;;;;;4857541;29;20632;-77
2023/08/22 02:50:53;;;;;;;4.17;2.93;;;18.80;99.90;;;;;;4857120;29;20205;-78
2023/08/22 02:53:26;;;;;;;5.30;3.13;;;18.80;99.90;;;;;;4857468;29;20709;-77
2023/08/22 02:55:53;;;;;;;4.67;2.50;;;18.80;99.90;;;;;;4857420;29;20292;-77
2023/08/22 02:58:21;;;;;;;4.37;2.77;;;18.80;99.90;;;;;;4856281;29;20202;-76
2023/08/22 03:00:51;;;;;;;7.17;2.90;;;18.90;99.90;;;;;;4856770;29;20446;-78
2023/08/22 03:03:18;;;;;;;4.90;2.93;;;18.80;99.90;;;;;;4856959;29;20673;-78
2023/08/22 03:05:52;;;;;;;6.07;3.10;;;18.80;99.90;;;;;;4857237;29;20300;-78
2023/08/22 03:08:21;;;;;;;5.70;3.07;;;18.80;99.90;;;;;;4856989;29;20737;-78
2023/08/22 03:10:48;;;;;;;5.00;2.80;;;18.80;99.90;;;;;;4857421;29;20216;-76
2023/08/22 03:13:16;;;;;;;8.40;2.70;;;18.80;99.90;;;;;;4856884;29;20288;-76
2023/08/22 03:15:44;;;;;;;7.37;2.90;;;18.80;99.90;;;;;;4857282;29;20615;-76
2023/08/22 03:18:12;;;;;;;7.87;3.27;;;18.80;99.90;;;;;;4857145;29;20229;-76
2023/08/22 03:20:41;;;;;;;6.23;3.27;;;18.70;99.90;;;;;;4857167;29;20249;-80
2023/08/22 03:23:08;;;;;;;6.37;3.10;;;18.60;99.90;;;;;;4857109;29;20233;-76
2023/08/22 03:25:36;;;;;;;6.87;3.20;;;18.60;99.90;;;;;;4857086;29;20212;-77
2023/08/22 03:28:06;;;;;;;5.20;2.93;;;18.60;99.90;;;;;;4857154;29;20240;-76
2023/08/22 03:30:34;;;;;;;6.73;3.40;;;18.50;99.90;;;;;;4856817;29;20693;-77
2023/08/22 03:33:01;;;;;;;7.87;3.30;;;18.40;99.90;;;;;;4857156;29;20266;-77
2023/08/22 03:35:31;;;;;;;12.33;4.07;;;18.30;99.90;;;;;;4857086;29;20781;-76
2023/08/22 03:38:01;;;;;;;10.73;3.70;;;18.30;99.90;;;;;;4857137;29;20731;-79
2023/08/22 03:40:28;;;;;;;9.13;4.13;;;18.30;99.90;;;;;;4857012;29;20669;-78
2023/08/22 03:42:58;;;;;;;12.03;4.10;;;18.40;99.90;;;;;;4856477;29;20205;-80
2023/08/22 03:56:57;;;;;;;11.57;4.00;;;18.40;99.90;;;;;;5903320;23;20864;-84
2023/08/22 05:40:56;;;;;;;7.23;3.20;;;20.00;99.90;;;;;;5528998;24;20818;-82
2023/08/22 05:44:31;;;;;;;;;;;;;;;;;;;;;
2023/08/22 05:48:58;;;;;;;;;;;;;;;;;;;;;
2023/08/22 05:52:08;;;;;;;8.37;2.83;;;20.30;99.90;;;;;;4613752;31;20361;-84
2023/08/22 05:55:02;;;;;;;7.13;2.87;;;20.30;99.90;;;;;;4598738;31;20219;-83
2023/08/22 05:58:02;;;;;;;4.53;2.10;;;20.30;99.90;;;;;;4597833;31;20207;-83
2023/08/22 06:01:21;;;;;;;5.33;2.30;;;20.20;99.90;;;;;;4588802;31;20247;-84
2023/08/22 06:04:37;;;;;;;7.93;2.20;;;20.40;99.90;;;;;;4611817;31;20219;-84
2023/08/22 06:11:44;;;;;;;8.10;2.73;;;20.40;99.90;;;;;;4597622;31;20210;-81
2023/08/22 06:14:39;;;;;;;9.40;2.50;;;20.60;99.90;;;;;;4586947;31;20210;-85
2023/08/22 06:17:45;;;;;;;14.90;3.27;;;20.70;99.90;;;;;;4598637;31;20203;-84
2023/08/22 06:20:30;;;;;;;9.80;2.77;;;20.80;99.90;;;;;;4605328;31;20246;-83
2023/08/22 06:23:07;;;;;;;7.53;2.70;;;20.80;99.90;;;;;;4614424;31;20226;-82
2023/08/22 06:25:54;;;;;;;7.93;2.90;;;20.80;99.90;;;;;;4628729;31;20206;-85
2023/08/22 06:28:51;;;;;;;9.17;2.90;;;20.90;99.90;;;;;;4670199;30;20307;-85
2023/08/22 06:31:27;;;;;;;18.60;3.27;;;20.80;99.90;;;;;;4692855;30;20200;-84
2023/08/22 06:33:55;;;;;;;12.20;3.10;;;20.90;99.90;;;;;;4679764;30;20270;-80
2023/08/22 06:36:22;;;;;;;5.30;2.77;;;21.00;99.90;;;;;;4694386;30;20442;-84
2023/08/22 06:38:51;;;;;;;7.87;2.77;;;21.00;99.90;;;;;;4680104;30;20688;-82
2023/08/22 06:41:19;;;;;;;6.57;2.90;;;21.10;99.90;;;;;;4679011;30;20339;-83
2023/08/22 06:43:47;;;;;;;6.73;3.23;;;21.20;99.90;;;;;;4679527;30;20575;-79
2023/08/22 06:46:16;;;;;;;7.30;2.60;;;21.30;99.90;;;;;;4692861;30;20312;-80
2023/08/22 06:48:48;;;;;;;7.57;2.87;;;21.40;99.90;;;;;;4782896;30;20212;-84
2023/08/22 06:51:17;;;;;;;7.77;2.83;;;21.30;99.90;;;;;;4786187;30;20204;-82
2023/08/22 06:53:47;;;;;;;7.17;2.73;;;21.50;99.90;;;;;;4786127;30;20253;-82
2023/08/22 06:56:14;;;;;;;11.17;3.03;;;21.60;99.90;;;;;;4771422;30;20255;-84
2023/08/22 06:58:41;;;;;;;11.90;3.70;;;21.60;99.90;;;;;;4786467;30;20658;-84
2023/08/22 07:01:13;;;;;;;9.43;2.73;;;21.70;99.90;;;;;;4784541;30;20688;-82
2023/08/22 07:03:42;;;;;;;7.07;2.60;;;21.70;99.90;;;;;;4787012;30;20262;-81
2023/08/22 07:06:09;;;;;;;8.63;3.10;;;21.70;99.90;;;;;;4771217;30;20236;-80
2023/08/22 07:08:37;;;;;;;9.13;3.17;;;21.70;99.90;;;;;;4770558;30;20254;-77
2023/08/22 07:11:06;;;;;;;7.67;2.80;;;21.80;99.90;;;;;;4785305;30;20196;-77
2023/08/22 07:13:35;;;;;;;11.63;3.20;;;21.80;99.90;;;;;;4786554;30;20197;-78
2023/08/22 07:16:05;;;;;;;6.93;3.40;;;22.00;99.90;;;;;;4785022;30;20189;-79
2023/08/22 07:18:33;;;;;;;12.60;3.30;;;22.00;99.90;;;;;;4785857;30;20207;-81
2023/08/22 07:21:06;;;;;;;7.63;2.77;;;21.90;99.90;;;;;;4785870;30;20240;-82
2023/08/22 07:23:33;;;;;;;13.90;3.33;;;22.00;99.90;;;;;;4785705;30;20224;-84
2023/08/22 07:26:02;;;;;;;7.20;2.87;;;22.10;99.90;;;;;;4787477;30;20203;-85
2023/08/22 07:28:33;;;;;;;7.13;2.80;;;22.20;99.90;;;;;;4786572;30;20207;-86
2023/08/22 07:31:06;;;;;;;7.43;3.50;;;22.30;99.90;;;;;;4770650;30;20581;-84
2023/08/22 07:33:37;;;;;;;12.87;3.77;;;22.20;99.90;;;;;;4770719;30;20291;-76
2023/08/22 07:36:05;;;;;;;5.47;3.00;;;22.40;99.90;;;;;;4785383;30;20208;-77
2023/08/22 07:38:34;;;;;;;9.60;3.47;;;22.50;99.90;;;;;;4786088;30;20224;-85
2023/08/22 07:41:05;;;;;;;18.43;4.17;;;22.50;99.90;;;;;;4786741;30;20228;-85
2023/08/22 07:43:38;;;;;;;12.23;3.60;;;22.70;99.90;;;;;;4771804;30;20208;-86
2023/08/22 07:46:05;;;;;;;5.93;2.77;;;22.50;99.90;;;;;;4787625;30;20193;-83
2023/08/22 07:48:39;;;;;;;8.73;2.80;;;22.50;99.90;;;;;;4786711;29;20196;-83
2023/08/22 07:51:06;;;;;;;8.67;2.90;;;22.60;99.90;;;;;;4786558;30;20253;-84
2023/08/22 07:53:34;;;;;;;6.33;2.40;;;22.50;99.90;;;;;;4770386;30;20236;-83
2023/08/22 07:56:06;;;;;;;8.80;2.70;;;22.50;99.90;;;;;;4770735;30;20216;-83
2023/08/22 07:58:39;;;;;;;8.10;2.50;;;22.40;99.90;;;;;;4786611;30;20202;-83
2023/08/22 08:01:09;;;;;;;5.83;2.90;;;22.30;99.90;;;;;;4787665;29;20224;-84
2023/08/22 08:03:48;;;;;;;8.27;2.30;;;22.30;99.90;;;;;;4790586;30;20220;-84
2023/08/22 08:06:17;;;;;;;6.80;2.20;;;22.40;99.90;;;;;;4790358;30;20571;-84
2023/08/22 08:08:48;;;;;;;7.03;2.63;;;22.80;99.90;;;;;;4788861;30;20358;-83
2023/08/22 08:11:19;;;;;;;5.72;2.55;;;23.80;99.90;;;;;;4773598;30;20197;-85
2023/08/22 08:13:47;;;;;;;8.90;2.63;;;24.50;99.90;;;;;;4790280;30;20204;-86
2023/08/22 08:16:16;;;;;;;6.93;2.60;;;25.20;99.90;;;;;;4789984;30;20203;-87
2023/08/22 08:19:08;;;;;;;8.00;2.45;;;26.00;99.90;;;;;;4789139;30;20180;-85
2023/08/22 08:21:35;;;;;;;8.18;2.70;;;27.10;99.90;;;;;;4788471;30;20244;-86
2023/08/22 08:24:15;;;;;;;7.88;2.40;;;27.60;99.90;;;;;;4756672;30;20208;-87
2023/08/22 08:26:42;;;;;;;8.35;2.53;;;27.80;99.90;;;;;;4770365;30;20208;-83
2023/08/22 08:29:09;;;;;;;5.63;2.00;;;28.00;99.90;;;;;;4755511;30;20284;-83
2023/08/22 08:31:39;;;;;;;6.20;2.10;;;28.30;99.90;;;;;;4770201;30;20197;-86
2023/08/22 08:34:09;;;;;;;5.20;1.90;;;28.60;99.90;;;;;;4771097;30;20251;-85
2023/08/22 08:36:37;;;;;;;3.53;1.90;;;29.10;99.90;;;;;;4770661;30;20236;-87
2023/08/22 08:39:09;;;;;;;4.88;1.92;;;29.60;99.90;;;;;;4771588;30;20209;-76
2023/08/22 08:42:14;;;;;;;4.72;1.83;;;29.60;99.90;;;;;;4770696;30;20253;-78
2023/08/22 08:44:45;;;;;;;12.38;2.53;;;29.70;99.90;;;;;;4755641;30;20208;-77
2023/08/22 08:47:13;;;;;;;6.82;1.77;;;28.80;99.90;;;;;;4771745;30;20665;-84
2023/08/22 08:49:44;;;;;;;3.85;1.60;;;29.10;99.90;;;;;;4756021;30;20220;-87
2023/08/22 08:52:31;;;;;;;7.22;1.83;;;29.50;99.90;;;;;;4757372;30;20315;-89
2023/08/22 08:54:59;;;;;;;3.88;1.77;;;29.50;99.90;;;;;;4772008;30;20219;-88
2023/08/22 08:57:32;;;;;;;4.68;1.75;;;29.30;99.10;;;;;;4755649;30;20224;-85
2023/08/22 09:00:08;;;;;;;7.50;2.45;;;29.70;99.50;;;;;;4770929;30;20220;-87
2023/08/22 09:02:42;;;;;;;3.75;1.60;;;29.20;98.90;;;;;;4770994;30;20242;-87
2023/08/22 09:05:24;;;;;;;5.78;1.70;;;28.80;98.00;;;;;;4757085;30;20295;-86
2023/08/22 09:08:41;;;;;;;3.28;1.55;;;29.00;99.40;;;;;;4772436;30;20322;-87
2023/08/22 09:15:52;;;;;;;7.28;1.83;;;28.70;98.20;;;;;;4700268;30;20238;-82
2023/08/22 09:18:44;;;;;;;2.78;1.50;;;28.90;99.30;;;;;;4700693;30;20297;-81
2023/08/22 09:21:35;;;;;;;7.20;1.98;;;29.40;98.80;;;;;;4698464;30;20304;-80
2023/08/22 09:25:13;;;;;;;13.98;2.45;;;29.60;98.30;;;;;;4713395;30;20323;-80
2023/08/22 09:28:30;;;;;;;9.13;2.60;;;28.90;97.00;;;;;;4730772;30;20225;-80
2023/08/22 09:31:02;;;;;;;6.50;1.70;;;28.60;98.10;;;;;;4732367;30;20214;-81
2023/08/22 09:33:47;;;;;;;6.63;1.67;;;28.70;97.80;;;;;;4717229;30;20214;-80
2023/08/22 09:40:07;;;;;;;5.20;1.95;;;29.70;97.90;;;;;;4670527;30;20718;-85
2023/08/22 09:42:47;;;;;;;4.03;1.58;;;29.80;95.80;;;;;;4681043;30;20246;-86
2023/08/22 09:45:21;;;;;;;14.70;2.95;;;30.20;96.90;;;;;;4683178;30;20204;-85
2023/08/22 09:48:15;;;;;;;4.00;1.70;;;30.50;96.10;;;;;;4688907;30;20210;-87
2023/08/22 09:51:07;;;;;;;5.13;1.80;;;30.70;94.90;;;;;;4730617;30;20214;-88
2023/08/22 09:54:06;;;;;;;8.73;2.40;;;30.90;94.90;;;;;;4714247;30;20211;-85
2023/08/22 09:56:45;;;;;;;3.40;1.70;;;30.60;94.20;;;;;;4714597;30;20218;-88
2023/08/22 10:00:02;;;;;;;3.17;1.58;;;30.70;93.50;;;;;;4731383;30;20213;-87
2023/08/22 10:02:54;;;;;;;4.10;1.55;;;31.00;93.60;;;;;;4697040;30;20298;-87
2023/08/22 10:06:00;;;;;;;5.10;1.67;;;31.60;93.20;;;;;;4682788;30;20222;-87
2023/08/22 10:09:29;;;;;;;4.60;1.73;;;31.70;91.40;;;;;;4648440;30;20866;-87
2023/08/22 10:12:46;;;;;;;4.10;1.75;;;31.70;92.30;;;;;;4640832;30;20248;-86
2023/08/22 10:15:36;;;;;;;5.35;1.70;;;31.30;91.00;;;;;;4630668;30;20293;-86
2023/08/22 10:18:56;;;;;;;5.15;1.60;;;31.20;90.70;;;;;;4662712;30;20196;-82
2023/08/22 10:21:47;;;;;;;4.15;1.70;;;31.10;90.60;;;;;;4662199;30;20241;-86
2023/08/22 10:24:32;;;;;;;4.53;1.75;;;31.60;90.70;;;;;;4661982;30;20228;-87
2023/08/22 10:27:06;;;;;;;4.65;1.80;;;31.60;87.10;;;;;;4662304;30;20208;-79
2023/08/22 10:30:18;;;;;;;4.47;1.63;;;31.50;87.00;;;;;;4661977;30;20228;-81
2023/08/22 10:33:10;;;;;;;3.05;1.40;;;32.00;88.30;;;;;;4662488;30;20292;-79
2023/08/22 10:36:22;;;;;;;4.00;1.48;;;32.40;87.50;;;;;;4662203;30;20750;-80
2023/08/22 10:39:07;;;;;;;3.67;1.38;;;32.30;83.00;;;;;;4632789;30;20222;-79
2023/08/22 10:41:54;;;;;;;2.28;1.20;;;32.30;83.40;;;;;;4611034;31;20326;-79
2023/08/22 10:44:31;;;;;;;2.70;1.52;;;32.00;83.10;;;;;;4612292;31;20305;-85
2023/08/22 10:47:14;;;;;;;3.20;1.30;;;32.00;86.10;;;;;;4665119;30;20255;-87
2023/08/22 10:53:38;;;;;;;4.90;1.60;;;32.20;81.10;;;;;;4729292;30;20272;-78
2023/08/22 11:04:28;;;;;;;3.28;1.40;;;32.20;82.70;;;;;;4626403;30;20269;-89
2023/08/22 11:07:10;;;;;;;3.00;1.50;;;31.50;82.90;;;;;;4628314;31;20244;-88
2023/08/22 11:09:48;;;;;;;4.30;1.60;;;31.50;82.10;;;;;;4600418;31;20210;-89
2023/08/22 11:15:22;;;;;;;2.77;1.80;;;32.30;80.60;;;;;;4625424;31;20522;-85
2023/08/22 11:17:50;;;;;;;5.80;1.75;;;33.00;80.00;;;;;;4599991;31;20930;-86
2023/08/22 11:20:24;;;;;;;4.47;1.85;;;33.40;81.60;;;;;;4628175;30;20700;-87
2023/08/22 11:22:53;;;;;;;3.88;1.50;;;33.90;79.20;;;;;;4618722;30;20251;-86
2023/08/22 11:25:28;;;;;;;4.03;1.42;;;33.90;76.60;;;;;;4631176;30;20400;-83
2023/08/22 11:27:55;;;;;;;3.28;1.42;;;33.90;73.00;;;;;;4631745;30;20198;-84
2023/08/22 11:30:35;;;;;;;3.65;1.70;;;33.90;73.00;;;;;;4628437;30;20218;-84
2023/08/22 11:33:05;;;;;;;2.67;1.35;;;33.90;72.70;;;;;;4623210;30;20304;-84
2023/08/22 11:35:33;;;;;;;4.20;1.60;;;34.00;71.90;;;;;;4670162;30;20273;-83
2023/08/22 11:38:01;;;;;;;3.08;1.40;;;32.90;72.60;;;;;;4700313;30;20274;-85
2023/08/22 11:40:28;;;;;;;3.35;1.60;;;33.30;74.20;;;;;;4700119;30;20219;-84
2023/08/22 11:43:24;;;;;;;3.58;1.38;;;33.80;72.70;;;;;;4739255;30;20244;-85
2023/08/22 11:45:54;;;;;;;3.15;1.30;;;33.60;73.80;;;;;;4775898;30;20215;-86
2023/08/22 11:48:27;;;;;;;3.67;1.75;;;34.00;73.70;;;;;;4775538;30;20280;-84
2023/08/22 11:50:55;;;;;;;2.75;1.50;;;34.70;72.50;;;;;;4773265;30;20291;-84
2023/08/22 11:53:38;;;;;;;2.42;1.30;;;34.70;71.80;;;;;;4771265;30;20689;-88
2023/08/22 11:56:07;;;;;;;3.55;1.40;;;35.50;70.20;;;;;;4771365;30;20222;-83
2023/08/22 11:58:44;;;;;;;2.22;1.30;;;36.20;65.50;;;;;;4772407;30;20208;-86
2023/08/22 12:01:20;;;;;;;4.07;1.15;;;36.20;65.00;;;;;;4771941;30;20225;-85
2023/08/22 12:03:56;;;;;;;4.50;1.55;;;36.70;64.10;;;;;;4772131;30;20205;-85
2023/08/22 12:06:32;;;;;;;2.40;1.30;;;36.50;65.00;;;;;;4756330;30;20295;-85
2023/08/22 12:09:01;;;;;;;2.83;1.55;;;36.90;63.90;;;;;;4770733;30;20244;-83
2023/08/22 12:11:31;;;;;;;4.50;1.30;;;37.00;64.20;;;;;;4756264;30;20216;-86
2023/08/22 12:14:01;;;;;;;2.95;1.40;;;37.40;62.80;;;;;;4741369;30;20298;-84
2023/08/22 12:16:36;;;;;;;3.33;1.42;;;37.20;59.70;;;;;;4772033;30;20225;-87
2023/08/22 12:19:30;;;;;;;3.17;1.30;;;36.00;61.60;;;;;;4770807;30;20208;-81
2023/08/22 12:22:03;;;;;;;3.42;1.10;;;35.50;62.80;;;;;;4716088;30;20652;-78
2023/08/22 12:24:33;;;;;;;3.65;1.20;;;35.50;64.50;;;;;;4716734;30;20289;-88
2023/08/22 12:27:03;;;;;;;4.18;1.50;;;35.70;63.60;;;;;;4716136;30;20718;-83
2023/08/22 12:29:39;;;;;;;2.05;1.23;;;35.90;61.80;;;;;;4701980;30;20207;-86
2023/08/22 12:32:21;;;;;;;2.97;1.48;;;35.30;62.20;;;;;;4701632;30;20735;-86
2023/08/22 12:34:49;;;;;;;3.67;1.60;;;34.60;64.10;;;;;;4701431;30;20477;-86
2023/08/22 12:37:33;;;;;;;3.13;1.40;;;34.20;64.30;;;;;;4700292;30;20303;-85
2023/08/22 12:40:10;;;;;;;3.00;1.42;;;33.40;65.00;;;;;;4716673;30;20254;-77
2023/08/22 12:42:42;;;;;;;3.67;1.35;;;33.30;66.10;;;;;;4702133;30;20246;-78
2023/08/22 12:45:13;;;;;;;2.08;1.27;;;33.90;65.10;;;;;;4716191;30;20587;-82
2023/08/22 12:47:43;;;;;;;2.95;1.20;;;33.80;64.40;;;;;;4715710;30;20291;-82
2023/08/22 12:50:35;;;;;;;2.13;1.30;;;33.90;63.50;;;;;;4715917;30;20214;-87
2023/08/22 12:53:20;;;;;;;1.90;1.30;;;34.20;64.80;;;;;;4716465;30;20242;-84
2023/08/22 12:55:48;;;;;;;4.10;1.50;;;34.40;61.20;;;;;;4701594;30;20218;-84
2023/08/22 12:58:18;;;;;;;3.85;1.42;;;34.00;65.30;;;;;;4715152;30;20205;-87
2023/08/22 13:00:52;;;;;;;3.03;1.30;;;34.70;65.80;;;;;;4770777;30;20215;-87
2023/08/22 13:03:34;;;;;;;3.65;1.38;;;35.10;64.40;;;;;;4770848;30;20272;-84
2023/08/22 13:06:06;;;;;;;2.55;1.40;;;34.70;62.20;;;;;;4755986;30;20287;-84
2023/08/22 13:08:37;;;;;;;2.08;1.50;;;34.20;63.70;;;;;;4754305;30;20229;-85
2023/08/22 13:11:25;;;;;;;3.05;1.30;;;34.60;64.30;;;;;;4754797;30;20213;-86
2023/08/22 13:13:59;;;;;;;2.30;1.20;;;34.70;63.00;;;;;;4769846;30;20204;-84
2023/08/22 13:16:28;;;;;;;3.20;1.30;;;34.50;63.30;;;;;;4754319;30;20221;-84
2023/08/22 13:18:56;;;;;;;2.55;1.50;;;34.40;63.10;;;;;;4769940;30;20208;-83
2023/08/22 13:21:33;;;;;;;2.35;1.25;;;34.40;62.80;;;;;;4754356;30;20319;-84
2023/08/22 13:24:12;;;;;;;2.65;1.42;;;34.10;63.70;;;;;;4769462;30;20241;-84
2023/08/22 13:26:42;;;;;;;4.22;1.40;;;33.80;63.60;;;;;;4770783;30;20209;-83
2023/08/22 13:29:12;;;;;;;3.42;1.20;;;33.90;64.80;;;;;;4769516;30;20312;-81
2023/08/22 13:31:50;;;;;;;2.70;1.40;;;33.70;64.20;;;;;;4770390;30;20220;-82
2023/08/22 13:34:23;;;;;;;3.08;1.15;;;33.20;65.00;;;;;;4771172;30;20197;-86
2023/08/22 13:36:51;;;;;;;3.58;1.30;;;33.00;63.40;;;;;;4754997;30;20245;-86
2023/08/22 13:39:21;;;;;;;3.28;1.30;;;32.50;64.10;;;;;;4770867;30;20205;-86
2023/08/22 13:41:51;;;;;;;2.85;1.20;;;32.40;64.50;;;;;;4754847;30;20237;-84
2023/08/22 13:44:21;;;;;;;2.97;1.48;;;32.80;66.60;;;;;;4769334;30;20216;-82
2023/08/22 13:46:52;;;;;;;2.72;1.40;;;32.80;63.40;;;;;;4754793;30;20208;-83
2023/08/22 13:49:22;;;;;;;3.28;1.52;;;33.00;64.00;;;;;;4770086;30;20248;-84
2023/08/22 13:51:53;;;;;;;2.53;1.30;;;32.60;64.80;;;;;;4770568;30;20225;-84
2023/08/22 13:54:25;;;;;;;2.63;1.30;;;32.60;64.10;;;;;;4769430;30;20243;-84
2023/08/22 13:56:53;;;;;;;2.80;1.40;;;32.50;66.10;;;;;;4770818;30;20600;-86
2023/08/22 13:59:23;;;;;;;3.60;1.50;;;32.50;65.70;;;;;;4753248;30;20226;-84
2023/08/22 14:01:50;;;;;;;4.72;1.73;;;31.80;63.70;;;;;;4769221;30;20228;-86
2023/08/22 14:04:21;;;;;;;2.70;1.45;;;31.70;65.10;;;;;;4770448;30;20266;-84
2023/08/22 14:06:52;;;;;;;2.47;1.58;;;31.70;66.70;;;;;;4769089;30;20705;-77
2023/08/22 14:09:22;;;;;;;3.38;1.48;;;31.90;65.80;;;;;;4768343;30;20209;-76
2023/08/22 14:11:53;;;;;;;4.28;1.60;;;32.70;66.20;;;;;;4783134;30;20207;-78
2023/08/22 14:14:21;;;;;;;2.97;1.40;;;33.00;62.50;;;;;;4770084;30;20201;-76
2023/08/22 14:16:52;;;;;;;3.65;1.40;;;33.00;63.70;;;;;;4768831;30;20292;-77
2023/08/22 14:19:35;;;;;;;1.92;1.30;;;33.70;63.90;;;;;;4769517;30;20196;-76
2023/08/22 14:22:03;;;;;;;2.85;1.40;;;34.10;63.30;;;;;;4768829;30;20665;-78
2023/08/22 14:24:35;;;;;;;3.47;1.40;;;33.80;62.10;;;;;;4768968;30;20204;-77
2023/08/22 14:27:04;;;;;;;2.60;1.50;;;33.80;61.90;;;;;;4770027;30;20228;-74
2023/08/22 14:29:33;;;;;;;3.45;1.65;;;32.30;62.60;;;;;;4754043;30;20197;-77
2023/08/22 14:32:02;;;;;;;2.25;1.48;;;32.30;65.10;;;;;;4769615;30;20650;-76
2023/08/22 14:34:29;;;;;;;2.38;1.50;;;32.40;64.80;;;;;;4769935;30;20733;-76
2023/08/22 14:36:59;;;;;;;4.93;1.42;;;31.30;63.50;;;;;;4769466;30;20217;-77
2023/08/22 14:39:46;;;;;;;3.22;1.42;;;31.00;66.10;;;;;;4768839;30;20205;-85
2023/08/22 14:42:31;;;;;;;2.60;1.50;;;32.00;65.70;;;;;;4754793;30;20245;-81
2023/08/22 14:44:59;;;;;;;3.55;1.50;;;32.10;64.80;;;;;;4768256;30;20215;-85
2023/08/22 14:47:31;;;;;;;4.25;1.73;;;31.90;64.10;;;;;;4768124;30;20201;-80
2023/08/22 14:50:01;;;;;;;3.28;1.38;;;32.20;64.40;;;;;;4769142;30;20688;-85
2023/08/22 14:52:28;;;;;;;3.45;1.73;;;32.50;62.80;;;;;;4768241;30;20685;-76
2023/08/22 14:54:55;;;;;;;3.17;1.70;;;32.90;64.30;;;;;;4769550;30;20235;-77
2023/08/22 14:57:29;;;;;;;5.97;1.95;;;32.40;63.00;;;;;;4769473;30;20189;-80
2023/08/22 14:59:59;;;;;;;4.20;1.73;;;31.90;64.00;;;;;;4753372;30;20228;-82
2023/08/22 15:02:26;;;;;;;2.47;1.50;;;30.10;65.90;;;;;;4769596;30;20225;-84
2023/08/22 15:04:54;;;;;;;4.28;2.40;;;29.80;67.50;;;;;;4769635;30;20571;-82
2023/08/22 15:07:31;;;;;;;4.45;2.03;;;29.60;70.00;;;;;;4768369;30;20682;-82
2023/08/22 15:10:04;;;;;;;3.20;1.80;;;29.40;69.30;;;;;;4738867;30;20282;-86
2023/08/22 15:12:32;;;;;;;2.75;1.75;;;29.50;69.30;;;;;;4769440;30;20239;-86
2023/08/22 15:15:03;;;;;;;4.05;1.80;;;29.50;69.30;;;;;;4753880;30;20223;-85
2023/08/22 15:17:30;;;;;;;3.03;1.60;;;29.30;69.30;;;;;;4768338;30;20606;-85
2023/08/22 15:19:58;;;;;;;3.95;1.90;;;29.20;71.10;;;;;;4769165;30;20204;-85
2023/08/22 15:22:27;;;;;;;7.63;2.30;;;29.00;70.70;;;;;;4753657;30;20321;-85
2023/08/22 15:24:54;;;;;;;3.92;1.63;;;28.80;71.20;;;;;;4768661;30;20300;-76
2023/08/22 15:27:23;;;;;;;2.72;1.60;;;28.70;71.70;;;;;;4768130;30;20232;-83
2023/08/22 15:29:50;;;;;;;3.70;1.88;;;28.60;72.40;;;;;;4753035;30;20279;-83
2023/08/22 15:32:20;;;;;;;2.47;1.90;;;28.50;73.00;;;;;;4768852;30;20251;-85
2023/08/22 15:34:57;;;;;;;4.78;2.00;;;28.10;72.80;;;;;;4769245;30;20200;-85
2023/08/22 15:37:35;;;;;;;3.75;1.70;;;28.00;73.90;;;;;;4767937;30;20229;-76
2023/08/22 15:40:06;;;;;;;3.22;2.13;;;27.70;73.30;;;;;;4751777;30;20480;-75
2023/08/22 15:42:37;;;;;;;3.72;1.92;;;27.70;73.40;;;;;;4767251;30;20272;-75
2023/08/22 15:45:11;;;;;;;4.68;2.10;;;27.40;72.80;;;;;;4768100;30;20193;-82
2023/08/22 15:47:44;;;;;;;2.55;1.70;;;27.30;74.70;;;;;;4752477;30;20211;-82
2023/08/22 15:50:11;;;;;;;3.60;1.80;;;27.30;76.00;;;;;;4768583;30;20584;-81
2023/08/22 15:52:41;;;;;;;3.72;1.85;;;27.40;75.70;;;;;;4768283;30;20227;-83
2023/08/22 15:55:09;;;;;;;2.75;2.05;;;27.30;75.00;;;;;;4738906;30;20218;-83
2023/08/22 15:57:36;;;;;;;4.00;1.90;;;27.20;74.80;;;;;;4738068;30;20208;-83
2023/08/22 16:00:04;;;;;;;3.00;2.00;;;27.20;77.00;;;;;;4768872;30;20611;-84
2023/08/22 16:02:32;;;;;;;3.67;2.00;;;27.20;77.50;;;;;;4768556;30;20224;-84
2023/08/22 16:05:00;;;;;;;5.57;2.40;;;27.20;77.10;;;;;;4770599;30;20199;-82
2023/08/22 16:07:27;;;;;;;2.75;1.75;;;27.10;76.10;;;;;;4769874;30;20244;-82
2023/08/22 16:09:55;;;;;;;3.75;1.73;;;27.10;77.90;;;;;;4768253;30;20281;-83
2023/08/22 16:12:24;;;;;;;2.80;1.65;;;27.00;79.00;;;;;;4769852;30;20205;-81
2023/08/22 16:14:51;;;;;;;4.60;1.70;;;27.00;79.80;;;;;;4770628;30;20201;-82
2023/08/22 16:17:18;;;;;;;4.10;1.77;;;26.80;79.80;;;;;;4755234;30;20205;-83
2023/08/22 16:19:46;;;;;;;2.60;1.48;;;26.80;80.50;;;;;;4755017;30;20209;-85
2023/08/22 16:22:14;;;;;;;4.90;1.60;;;26.70;81.00;;;;;;4772747;30;20274;-83